sensor_id;sensor_type;location;lat;lon;timestamp;temperature;humidity
38380;DHT22;38377;47.418;18.882;2022-10-16T00:00:31;13.90;99.90
38380;DHT22;38377;47.418;18.882;2022-10-16T00:02:57;13.90;99.90
38380;DHT22;38377;47.418;18.882;2022-10-16T00:05:23;13.80;99.90
38380;DHT22;38377;47.418;18.882;2022-10-16T00:07:48;13.80;99.90
38380;DHT22;38377;47.418;18.882;2022-10-16T00:10:14;13.70;99.90
38380;DHT22;38377;47.418;18.882;2022-10-16T00:12:40;13.70;99.90
38380;DHT22;38377;47.418;18.882;2022-10-16T00:15:06;13.70;99.90
38380;DHT22;38377;47.418;18.882;2022-10-16T00:17:32;13.60;99.90
38380;DHT22;38377;47.418;18.882;2022-10-16T00:19:57;13.60;99.90
38380;DHT22;38377;47.418;18.882;2022-10-16T00:22:23;13.50;99.90
38380;DHT22;38377;47.418;18.882;2022-10-16T00:24:49;13.50;99.90
38380;DHT22;38377;47.418;18.882;2022-10-16T00:27:15;13.40;99.90
38380;DHT22;38377;47.418;18.882;2022-10-16T00:29:42;13.40;99.90
38380;DHT22;38377;47.418;18.882;2022-10-16T00:32:08;13.30;99.90
38380;DHT22;38377;47.418;18.882;2022-10-16T00:34:34;13.30;99.90
38380;DHT22;38377;47.418;18.882;2022-10-16T00:37:00;13.20;99.90
38380;DHT22;38377;47.418;18.882;2022-10-16T00:39:26;13.20;99.90
38380;DHT22;38377;47.418;18.882;2022-10-16T00:41:52;13.10;99.90
38380;DHT22;38377;47.418;18.882;2022-10-16T00:47:15;12.90;99.90
38380;DHT22;38377;47.418;18.882;2022-10-16T00:49:43;12.90;99.90
38380;DHT22;38377;47.418;18.882;2022-10-16T00:52:10;12.80;99.90
38380;DHT22;38377;47.418;18.882;2022-10-16T00:54:36;12.70;99.90
38380;DHT22;38377;47.418;18.882;2022-10-16T00:57:04;12.60;99.90
38380;DHT22;38377;47.418;18.882;2022-10-16T00:59:39;12.50;99.90
38380;DHT22;38377;47.418;18.882;2022-10-16T01:02:07;12.40;99.90
38380;DHT22;38377;47.418;18.882;2022-10-16T01:04:53;12.30;99.90
38380;DHT22;38377;47.418;18.882;2022-10-16T01:12:52;12.10;99.90
38380;DHT22;38377;47.418;18.882;2022-10-16T01:21:04;11.80;99.90
38380;DHT22;38377;47.418;18.882;2022-10-16T01:23:50;11.80;99.90
38380;DHT22;38377;47.418;18.882;2022-10-16T01:31:51;11.70;99.90
38380;DHT22;38377;47.418;18.882;2022-10-16T01:34:25;11.50;99.90
38380;DHT22;38377;47.418;18.882;2022-10-16T01:37:09;11.60;99.90
38380;DHT22;38377;47.418;18.882;2022-10-16T01:39:39;11.60;99.90
38380;DHT22;38377;47.418;18.882;2022-10-16T01:42:14;11.60;99.90
38380;DHT22;38377;47.418;18.882;2022-10-16T01:44:42;11.60;99.90
38380;DHT22;38377;47.418;18.882;2022-10-16T01:47:10;11.70;99.90
38380;DHT22;38377;47.418;18.882;2022-10-16T01:49:39;11.80;99.90
38380;DHT22;38377;47.418;18.882;2022-10-16T01:52:10;11.80;99.90
38380;DHT22;38377;47.418;18.882;2022-10-16T01:54:38;11.90;99.90
38380;DHT22;38377;47.418;18.882;2022-10-16T01:57:07;11.90;99.90
38380;DHT22;38377;47.418;18.882;2022-10-16T01:59:40;12.00;99.90
38380;DHT22;38377;47.418;18.882;2022-10-16T02:02:09;12.00;99.90
38380;DHT22;38377;47.418;18.882;2022-10-16T02:04:42;12.10;99.90
38380;DHT22;38377;47.418;18.882;2022-10-16T02:07:09;12.00;99.90
38380;DHT22;38377;47.418;18.882;2022-10-16T02:09:35;12.00;99.90
38380;DHT22;38377;47.418;18.882;2022-10-16T02:12:08;12.00;99.90
38380;DHT22;38377;47.418;18.882;2022-10-16T02:14:38;12.00;99.90
38380;DHT22;38377;47.418;18.882;2022-10-16T02:17:16;11.90;99.90
38380;DHT22;38377;47.418;18.882;2022-10-16T02:19:42;11.80;99.90
38380;DHT22;38377;47.418;18.882;2022-10-16T02:22:55;11.80;99.90
38380;DHT22;38377;47.418;18.882;2022-10-16T02:28:01;11.80;99.90
38380;DHT22;38377;47.418;18.882;2022-10-16T02:30:37;11.70;99.90
38380;DHT22;38377;47.418;18.882;2022-10-16T02:33:07;11.70;99.90
38380;DHT22;38377;47.418;18.882;2022-10-16T02:35:35;11.70;99.90
38380;DHT22;38377;47.418;18.882;2022-10-16T02:38:02;11.60;99.90
38380;DHT22;38377;47.418;18.882;2022-10-16T02:40:29;11.60;99.90
38380;DHT22;38377;47.418;18.882;2022-10-16T02:42:55;11.50;99.90
38380;DHT22;38377;47.418;18.882;2022-10-16T02:45:21;11.60;99.90
38380;DHT22;38377;47.418;18.882;2022-10-16T02:47:47;11.60;99.90
38380;DHT22;38377;47.418;18.882;2022-10-16T02:50:13;11.60;99.90
38380;DHT22;38377;47.418;18.882;2022-10-16T02:52:42;11.60;99.90
38380;DHT22;38377;47.418;18.882;2022-10-16T02:55:08;11.50;99.90
38380;DHT22;38377;47.418;18.882;2022-10-16T02:57:34;11.40;99.90
38380;DHT22;38377;47.418;18.882;2022-10-16T03:00:03;11.30;99.90
38380;DHT22;38377;47.418;18.882;2022-10-16T03:02:29;11.30;99.90
38380;DHT22;38377;47.418;18.882;2022-10-16T03:04:55;11.30;99.90
38380;DHT22;38377;47.418;18.882;2022-10-16T03:07:22;11.30;99.90
38380;DHT22;38377;47.418;18.882;2022-10-16T03:09:48;11.30;99.90
38380;DHT22;38377;47.418;18.882;2022-10-16T03:12:14;11.20;99.90
38380;DHT22;38377;47.418;18.882;2022-10-16T03:14:39;11.10;99.90
38380;DHT22;38377;47.418;18.882;2022-10-16T03:17:05;10.90;99.90
38380;DHT22;38377;47.418;18.882;2022-10-16T03:19:31;10.70;99.90
38380;DHT22;38377;47.418;18.882;2022-10-16T03:21:57;10.60;99.90
38380;DHT22;38377;47.418;18.882;2022-10-16T03:24:23;10.40;99.90
38380;DHT22;38377;47.418;18.882;2022-10-16T03:26:48;10.30;99.90
38380;DHT22;38377;47.418;18.882;2022-10-16T03:29:14;10.20;99.90
38380;DHT22;38377;47.418;18.882;2022-10-16T03:31:41;10.10;99.90
38380;DHT22;38377;47.418;18.882;2022-10-16T03:34:07;10.00;99.90
38380;DHT22;38377;47.418;18.882;2022-10-16T03:36:32;9.90;99.90
38380;DHT22;38377;47.418;18.882;2022-10-16T03:38:58;9.80;99.90
38380;DHT22;38377;47.418;18.882;2022-10-16T03:41:24;9.70;99.90
38380;DHT22;38377;47.418;18.882;2022-10-16T03:43:49;9.60;99.90
38380;DHT22;38377;47.418;18.882;2022-10-16T03:46:15;9.60;99.90
38380;DHT22;38377;47.418;18.882;2022-10-16T03:48:41;9.60;99.90
38380;DHT22;38377;47.418;18.882;2022-10-16T03:51:06;9.60;99.90
38380;DHT22;38377;47.418;18.882;2022-10-16T03:53:32;9.50;99.90
38380;DHT22;38377;47.418;18.882;2022-10-16T03:55:58;9.40;99.90
38380;DHT22;38377;47.418;18.882;2022-10-16T03:58:24;9.30;99.90
38380;DHT22;38377;47.418;18.882;2022-10-16T04:00:49;9.30;99.90
38380;DHT22;38377;47.418;18.882;2022-10-16T04:03:15;9.30;99.90
38380;DHT22;38377;47.418;18.882;2022-10-16T04:05:41;9.20;99.90
38380;DHT22;38377;47.418;18.882;2022-10-16T04:08:07;9.20;99.90
38380;DHT22;38377;47.418;18.882;2022-10-16T04:10:33;9.20;99.90
38380;DHT22;38377;47.418;18.882;2022-10-16T04:12:59;9.20;99.90
38380;DHT22;38377;47.418;18.882;2022-10-16T04:15:24;9.10;99.90
38380;DHT22;38377;47.418;18.882;2022-10-16T04:17:53;9.00;99.90
38380;DHT22;38377;47.418;18.882;2022-10-16T04:20:19;8.90;99.90
38380;DHT22;38377;47.418;18.882;2022-10-16T04:22:45;8.80;99.90
38380;DHT22;38377;47.418;18.882;2022-10-16T04:25:10;8.80;99.90
38380;DHT22;38377;47.418;18.882;2022-10-16T04:27:37;8.80;99.90
38380;DHT22;38377;47.418;18.882;2022-10-16T04:30:03;8.80;99.90
38380;DHT22;38377;47.418;18.882;2022-10-16T04:32:29;8.90;99.90
38380;DHT22;38377;47.418;18.882;2022-10-16T04:34:55;8.80;99.90
38380;DHT22;38377;47.418;18.882;2022-10-16T04:37:27;8.70;99.90
38380;DHT22;38377;47.418;18.882;2022-10-16T04:39:53;8.70;99.90
38380;DHT22;38377;47.418;18.882;2022-10-16T04:42:20;8.70;99.90
38380;DHT22;38377;47.418;18.882;2022-10-16T04:44:46;8.70;99.90
38380;DHT22;38377;47.418;18.882;2022-10-16T04:47:12;8.70;99.90
38380;DHT22;38377;47.418;18.882;2022-10-16T04:49:38;8.70;99.90
38380;DHT22;38377;47.418;18.882;2022-10-16T04:52:04;8.70;99.90
38380;DHT22;38377;47.418;18.882;2022-10-16T04:54:29;8.60;99.90
38380;DHT22;38377;47.418;18.882;2022-10-16T04:56:55;8.60;99.90
38380;DHT22;38377;47.418;18.882;2022-10-16T04:59:22;8.60;99.90
38380;DHT22;38377;47.418;18.882;2022-10-16T05:01:47;8.50;99.90
38380;DHT22;38377;47.418;18.882;2022-10-16T05:04:14;8.50;99.90
38380;DHT22;38377;47.418;18.882;2022-10-16T05:06:41;8.50;99.90
38380;DHT22;38377;47.418;18.882;2022-10-16T05:09:07;8.40;99.90
38380;DHT22;38377;47.418;18.882;2022-10-16T05:11:33;8.40;99.90
38380;DHT22;38377;47.418;18.882;2022-10-16T05:13:59;8.40;99.90
38380;DHT22;38377;47.418;18.882;2022-10-16T05:16:25;8.40;99.90
38380;DHT22;38377;47.418;18.882;2022-10-16T05:18:54;8.40;99.90
38380;DHT22;38377;47.418;18.882;2022-10-16T05:21:20;8.40;99.90
38380;DHT22;38377;47.418;18.882;2022-10-16T05:23:45;8.40;99.90
38380;DHT22;38377;47.418;18.882;2022-10-16T05:26:11;8.40;99.90
38380;DHT22;38377;47.418;18.882;2022-10-16T05:28:37;8.40;99.90
38380;DHT22;38377;47.418;18.882;2022-10-16T05:31:06;8.70;99.90
38380;DHT22;38377;47.418;18.882;2022-10-16T05:33:32;8.90;99.90
38380;DHT22;38377;47.418;18.882;2022-10-16T05:36:16;8.90;99.90
38380;DHT22;38377;47.418;18.882;2022-10-16T05:38:43;9.10;99.90
38380;DHT22;38377;47.418;18.882;2022-10-16T05:41:09;9.20;99.90
38380;DHT22;38377;47.418;18.882;2022-10-16T05:43:35;9.20;99.90
38380;DHT22;38377;47.418;18.882;2022-10-16T05:46:05;9.30;99.90
38380;DHT22;38377;47.418;18.882;2022-10-16T05:48:31;9.50;99.90
38380;DHT22;38377;47.418;18.882;2022-10-16T05:53:24;9.70;99.90
38380;DHT22;38377;47.418;18.882;2022-10-16T05:55:55;9.90;99.90
38380;DHT22;38377;47.418;18.882;2022-10-16T05:58:21;10.20;99.90
38380;DHT22;38377;47.418;18.882;2022-10-16T06:00:57;10.70;99.90
38380;DHT22;38377;47.418;18.882;2022-10-16T06:03:23;11.30;99.90
38380;DHT22;38377;47.418;18.882;2022-10-16T06:05:50;11.70;99.90
38380;DHT22;38377;47.418;18.882;2022-10-16T06:08:15;11.80;99.90
38380;DHT22;38377;47.418;18.882;2022-10-16T06:10:41;12.10;99.90
38380;DHT22;38377;47.418;18.882;2022-10-16T06:13:07;12.20;99.90
38380;DHT22;38377;47.418;18.882;2022-10-16T06:15:33;12.30;99.90
38380;DHT22;38377;47.418;18.882;2022-10-16T06:17:58;12.20;99.90
38380;DHT22;38377;47.418;18.882;2022-10-16T06:20:24;12.20;99.90
38380;DHT22;38377;47.418;18.882;2022-10-16T06:22:52;12.20;99.90
38380;DHT22;38377;47.418;18.882;2022-10-16T06:25:18;12.10;99.90
38380;DHT22;38377;47.418;18.882;2022-10-16T06:27:44;12.10;99.90
38380;DHT22;38377;47.418;18.882;2022-10-16T06:30:10;12.20;99.90
38380;DHT22;38377;47.418;18.882;2022-10-16T06:32:35;12.30;99.90
38380;DHT22;38377;47.418;18.882;2022-10-16T06:35:01;12.30;99.90
38380;DHT22;38377;47.418;18.882;2022-10-16T06:37:27;12.30;99.90
38380;DHT22;38377;47.418;18.882;2022-10-16T06:39:53;12.30;99.90
38380;DHT22;38377;47.418;18.882;2022-10-16T06:42:19;12.50;99.90
38380;DHT22;38377;47.418;18.882;2022-10-16T06:44:44;12.60;99.90
38380;DHT22;38377;47.418;18.882;2022-10-16T06:47:10;12.70;99.90
38380;DHT22;38377;47.418;18.882;2022-10-16T06:49:36;12.80;99.90
38380;DHT22;38377;47.418;18.882;2022-10-16T06:52:02;12.80;99.90
38380;DHT22;38377;47.418;18.882;2022-10-16T06:54:28;12.80;99.90
38380;DHT22;38377;47.418;18.882;2022-10-16T06:56:54;12.80;99.90
38380;DHT22;38377;47.418;18.882;2022-10-16T06:59:20;12.90;99.90
38380;DHT22;38377;47.418;18.882;2022-10-16T07:01:46;13.00;99.90
38380;DHT22;38377;47.418;18.882;2022-10-16T07:04:12;13.10;99.90
38380;DHT22;38377;47.418;18.882;2022-10-16T07:06:37;13.10;99.90
38380;DHT22;38377;47.418;18.882;2022-10-16T07:09:06;13.30;99.90
38380;DHT22;38377;47.418;18.882;2022-10-16T07:11:33;13.50;99.90
38380;DHT22;38377;47.418;18.882;2022-10-16T07:13:59;13.50;99.90
38380;DHT22;38377;47.418;18.882;2022-10-16T07:16:27;13.50;99.90
38380;DHT22;38377;47.418;18.882;2022-10-16T07:19:00;13.60;99.90
38380;DHT22;38377;47.418;18.882;2022-10-16T07:21:32;13.70;99.90
38380;DHT22;38377;47.418;18.882;2022-10-16T07:24:00;13.80;99.90
38380;DHT22;38377;47.418;18.882;2022-10-16T07:26:28;14.00;99.90
38380;DHT22;38377;47.418;18.882;2022-10-16T07:28:55;14.00;99.90
38380;DHT22;38377;47.418;18.882;2022-10-16T07:31:22;13.90;99.90
38380;DHT22;38377;47.418;18.882;2022-10-16T07:33:49;14.00;99.90
38380;DHT22;38377;47.418;18.882;2022-10-16T07:36:17;13.90;99.90
38380;DHT22;38377;47.418;18.882;2022-10-16T07:38:43;13.90;99.90
38380;DHT22;38377;47.418;18.882;2022-10-16T07:41:11;14.00;99.90
38380;DHT22;38377;47.418;18.882;2022-10-16T07:43:37;14.00;99.90
38380;DHT22;38377;47.418;18.882;2022-10-16T07:46:03;14.10;99.90
38380;DHT22;38377;47.418;18.882;2022-10-16T07:48:31;14.00;99.90
38380;DHT22;38377;47.418;18.882;2022-10-16T07:51:04;14.20;99.90
38380;DHT22;38377;47.418;18.882;2022-10-16T07:53:30;14.30;99.90
38380;DHT22;38377;47.418;18.882;2022-10-16T07:56:00;14.40;99.90
38380;DHT22;38377;47.418;18.882;2022-10-16T07:58:30;14.50;99.90
38380;DHT22;38377;47.418;18.882;2022-10-16T08:00:56;14.60;99.90
38380;DHT22;38377;47.418;18.882;2022-10-16T08:03:22;14.90;99.90
38380;DHT22;38377;47.418;18.882;2022-10-16T08:05:48;15.00;99.90
38380;DHT22;38377;47.418;18.882;2022-10-16T08:08:15;14.80;99.90
38380;DHT22;38377;47.418;18.882;2022-10-16T08:10:41;14.70;99.90
38380;DHT22;38377;47.418;18.882;2022-10-16T08:13:07;14.70;99.90
38380;DHT22;38377;47.418;18.882;2022-10-16T08:15:32;14.80;99.90
38380;DHT22;38377;47.418;18.882;2022-10-16T08:18:00;14.80;99.90
38380;DHT22;38377;47.418;18.882;2022-10-16T08:20:27;14.80;99.90
38380;DHT22;38377;47.418;18.882;2022-10-16T08:22:53;14.90;99.90
38380;DHT22;38377;47.418;18.882;2022-10-16T08:25:20;15.10;99.90
38380;DHT22;38377;47.418;18.882;2022-10-16T08:27:46;15.10;99.90
38380;DHT22;38377;47.418;18.882;2022-10-16T08:30:12;15.20;99.90
38380;DHT22;38377;47.418;18.882;2022-10-16T08:32:38;15.30;99.90
38380;DHT22;38377;47.418;18.882;2022-10-16T08:35:04;15.40;99.90
38380;DHT22;38377;47.418;18.882;2022-10-16T08:37:31;15.50;99.90
38380;DHT22;38377;47.418;18.882;2022-10-16T08:39:57;15.40;99.90
38380;DHT22;38377;47.418;18.882;2022-10-16T08:42:38;15.40;99.90
38380;DHT22;38377;47.418;18.882;2022-10-16T08:45:12;15.40;99.90
38380;DHT22;38377;47.418;18.882;2022-10-16T08:50:27;15.70;99.90
38380;DHT22;38377;47.418;18.882;2022-10-16T08:52:54;15.90;99.90
38380;DHT22;38377;47.418;18.882;2022-10-16T08:57:54;15.90;99.90
38380;DHT22;38377;47.418;18.882;2022-10-16T09:00:20;15.90;99.90
38380;DHT22;38377;47.418;18.882;2022-10-16T09:05:51;15.90;99.80
38380;DHT22;38377;47.418;18.882;2022-10-16T09:08:46;15.80;99.90
38380;DHT22;38377;47.418;18.882;2022-10-16T09:11:37;15.80;99.90
38380;DHT22;38377;47.418;18.882;2022-10-16T09:22:48;16.20;99.90
38380;DHT22;38377;47.418;18.882;2022-10-16T09:25:16;16.30;99.60
38380;DHT22;38377;47.418;18.882;2022-10-16T09:27:47;16.30;99.00
38380;DHT22;38377;47.418;18.882;2022-10-16T09:30:16;16.30;99.50
38380;DHT22;38377;47.418;18.882;2022-10-16T09:32:43;16.40;99.00
38380;DHT22;38377;47.418;18.882;2022-10-16T09:35:21;16.60;99.40
38380;DHT22;38377;47.418;18.882;2022-10-16T09:37:50;16.60;98.90
38380;DHT22;38377;47.418;18.882;2022-10-16T09:42:53;16.80;98.90
38380;DHT22;38377;47.418;18.882;2022-10-16T09:45:23;16.80;98.50
38380;DHT22;38377;47.418;18.882;2022-10-16T09:47:49;16.80;98.40
38380;DHT22;38377;47.418;18.882;2022-10-16T09:50:26;16.80;98.20
38380;DHT22;38377;47.418;18.882;2022-10-16T09:53:06;17.00;98.50
38380;DHT22;38377;47.418;18.882;2022-10-16T09:55:33;16.90;98.00
38380;DHT22;38377;47.418;18.882;2022-10-16T09:57:59;16.90;98.60
38380;DHT22;38377;47.418;18.882;2022-10-16T10:00:25;17.00;98.50
38380;DHT22;38377;47.418;18.882;2022-10-16T10:02:52;17.10;98.60
38380;DHT22;38377;47.418;18.882;2022-10-16T10:05:37;17.30;98.10
38380;DHT22;38377;47.418;18.882;2022-10-16T10:08:04;17.50;98.00
38380;DHT22;38377;47.418;18.882;2022-10-16T10:10:41;17.50;97.50
38380;DHT22;38377;47.418;18.882;2022-10-16T10:13:21;17.50;97.40
38380;DHT22;38377;47.418;18.882;2022-10-16T10:15:48;17.60;97.80
38380;DHT22;38377;47.418;18.882;2022-10-16T10:18:19;17.50;96.80
38380;DHT22;38377;47.418;18.882;2022-10-16T10:20:45;17.30;97.30
38380;DHT22;38377;47.418;18.882;2022-10-16T10:23:29;17.40;96.90
38380;DHT22;38377;47.418;18.882;2022-10-16T10:26:18;17.40;96.90
38380;DHT22;38377;47.418;18.882;2022-10-16T10:40:11;17.60;96.20
38380;DHT22;38377;47.418;18.882;2022-10-16T10:47:59;17.90;96.20
38380;DHT22;38377;47.418;18.882;2022-10-16T10:56:25;18.20;95.50
38380;DHT22;38377;47.418;18.882;2022-10-16T11:01:56;18.30;95.00
38380;DHT22;38377;47.418;18.882;2022-10-16T11:07:11;18.30;95.80
38380;DHT22;38377;47.418;18.882;2022-10-16T11:09:51;18.50;95.10
38380;DHT22;38377;47.418;18.882;2022-10-16T11:17:57;18.40;94.10
38380;DHT22;38377;47.418;18.882;2022-10-16T11:20:24;18.50;94.30
38380;DHT22;38377;47.418;18.882;2022-10-16T11:23:25;18.60;94.50
38380;DHT22;38377;47.418;18.882;2022-10-16T11:25:55;18.70;94.00
38380;DHT22;38377;47.418;18.882;2022-10-16T11:28:42;18.80;94.10
38380;DHT22;38377;47.418;18.882;2022-10-16T11:34:12;18.60;94.50
38380;DHT22;38377;47.418;18.882;2022-10-16T11:36:47;18.70;93.80
38380;DHT22;38377;47.418;18.882;2022-10-16T11:39:21;18.70;93.60
38380;DHT22;38377;47.418;18.882;2022-10-16T11:50:27;18.70;93.20
38380;DHT22;38377;47.418;18.882;2022-10-16T11:55:55;19.00;93.70
38380;DHT22;38377;47.418;18.882;2022-10-16T12:03:45;18.70;92.90
38380;DHT22;38377;47.418;18.882;2022-10-16T12:08:41;18.70;93.60
38380;DHT22;38377;47.418;18.882;2022-10-16T12:14:16;19.10;93.60
38380;DHT22;38377;47.418;18.882;2022-10-16T12:17:00;19.30;93.50
38380;DHT22;38377;47.418;18.882;2022-10-16T12:19:30;19.50;92.70
38380;DHT22;38377;47.418;18.882;2022-10-16T12:22:01;19.40;91.60
38380;DHT22;38377;47.418;18.882;2022-10-16T12:24:37;19.30;91.70
38380;DHT22;38377;47.418;18.882;2022-10-16T12:27:05;19.20;91.80
38380;DHT22;38377;47.418;18.882;2022-10-16T12:29:39;19.10;92.20
38380;DHT22;38377;47.418;18.882;2022-10-16T12:34:48;19.30;91.80
38380;DHT22;38377;47.418;18.882;2022-10-16T12:37:29;19.30;91.50
38380;DHT22;38377;47.418;18.882;2022-10-16T12:39:56;19.30;92.30
38380;DHT22;38377;47.418;18.882;2022-10-16T12:42:32;19.40;92.00
38380;DHT22;38377;47.418;18.882;2022-10-16T12:44:59;19.40;91.40
38380;DHT22;38377;47.418;18.882;2022-10-16T12:49:57;19.30;91.60
38380;DHT22;38377;47.418;18.882;2022-10-16T12:52:38;19.30;91.60
38380;DHT22;38377;47.418;18.882;2022-10-16T12:55:05;19.30;92.50
38380;DHT22;38377;47.418;18.882;2022-10-16T12:57:56;19.30;92.00
38380;DHT22;38377;47.418;18.882;2022-10-16T13:00:35;19.40;91.50
38380;DHT22;38377;47.418;18.882;2022-10-16T13:03:27;19.30;91.90
38380;DHT22;38377;47.418;18.882;2022-10-16T13:06:19;19.40;92.10
38380;DHT22;38377;47.418;18.882;2022-10-16T13:20:20;19.20;91.70
38380;DHT22;38377;47.418;18.882;2022-10-16T13:28:09;19.30;91.70
38380;DHT22;38377;47.418;18.882;2022-10-16T13:30:41;19.30;91.70
38380;DHT22;38377;47.418;18.882;2022-10-16T13:33:15;19.30;91.80
38380;DHT22;38377;47.418;18.882;2022-10-16T13:35:54;19.40;91.60
38380;DHT22;38377;47.418;18.882;2022-10-16T13:38:21;19.40;91.60
38380;DHT22;38377;47.418;18.882;2022-10-16T13:43:14;19.40;91.60
38380;DHT22;38377;47.418;18.882;2022-10-16T13:45:41;19.40;91.60
38380;DHT22;38377;47.418;18.882;2022-10-16T13:48:10;19.30;91.20
38380;DHT22;38377;47.418;18.882;2022-10-16T13:50:37;19.30;91.50
38380;DHT22;38377;47.418;18.882;2022-10-16T13:53:10;19.30;92.40
38380;DHT22;38377;47.418;18.882;2022-10-16T13:55:38;19.30;91.40
38380;DHT22;38377;47.418;18.882;2022-10-16T13:58:14;19.30;91.40
38380;DHT22;38377;47.418;18.882;2022-10-16T14:00:52;19.30;91.80
38380;DHT22;38377;47.418;18.882;2022-10-16T14:03:20;19.30;91.80
38380;DHT22;38377;47.418;18.882;2022-10-16T14:05:51;19.30;91.40
38380;DHT22;38377;47.418;18.882;2022-10-16T14:08:18;19.30;91.70
38380;DHT22;38377;47.418;18.882;2022-10-16T14:10:48;19.30;91.50
38380;DHT22;38377;47.418;18.882;2022-10-16T14:13:16;19.30;91.30
38380;DHT22;38377;47.418;18.882;2022-10-16T14:15:47;19.20;91.80
38380;DHT22;38377;47.418;18.882;2022-10-16T14:18:20;19.20;91.70
38380;DHT22;38377;47.418;18.882;2022-10-16T14:20:46;19.20;91.40
38380;DHT22;38377;47.418;18.882;2022-10-16T14:23:23;19.20;91.70
38380;DHT22;38377;47.418;18.882;2022-10-16T14:25:53;19.20;91.30
38380;DHT22;38377;47.418;18.882;2022-10-16T14:28:21;19.10;91.40
38380;DHT22;38377;47.418;18.882;2022-10-16T14:30:58;19.10;91.40
38380;DHT22;38377;47.418;18.882;2022-10-16T14:36:15;19.10;91.30
38380;DHT22;38377;47.418;18.882;2022-10-16T14:41:21;19.00;92.10
38380;DHT22;38377;47.418;18.882;2022-10-16T14:43:51;19.00;91.80
38380;DHT22;38377;47.418;18.882;2022-10-16T14:46:22;18.90;91.20
38380;DHT22;38377;47.418;18.882;2022-10-16T14:49:00;18.90;91.40
38380;DHT22;38377;47.418;18.882;2022-10-16T14:51:26;18.90;91.10
38380;DHT22;38377;47.418;18.882;2022-10-16T14:53:52;18.90;91.30
38380;DHT22;38377;47.418;18.882;2022-10-16T14:56:20;18.80;91.80
38380;DHT22;38377;47.418;18.882;2022-10-16T14:58:47;18.70;91.10
38380;DHT22;38377;47.418;18.882;2022-10-16T15:01:13;18.70;91.40
38380;DHT22;38377;47.418;18.882;2022-10-16T15:03:38;18.70;91.50
38380;DHT22;38377;47.418;18.882;2022-10-16T15:06:10;18.60;91.80
38380;DHT22;38377;47.418;18.882;2022-10-16T15:08:36;18.60;91.70
38380;DHT22;38377;47.418;18.882;2022-10-16T15:11:02;18.50;91.10
38380;DHT22;38377;47.418;18.882;2022-10-16T15:13:28;18.50;91.50
38380;DHT22;38377;47.418;18.882;2022-10-16T15:15:54;18.50;91.40
38380;DHT22;38377;47.418;18.882;2022-10-16T15:18:20;18.40;91.30
38380;DHT22;38377;47.418;18.882;2022-10-16T15:20:49;18.40;91.40
38380;DHT22;38377;47.418;18.882;2022-10-16T15:23:21;18.40;91.10
38380;DHT22;38377;47.418;18.882;2022-10-16T15:25:49;18.30;91.60
38380;DHT22;38377;47.418;18.882;2022-10-16T15:28:16;18.20;91.50
38380;DHT22;38377;47.418;18.882;2022-10-16T15:30:42;18.10;91.50
38380;DHT22;38377;47.418;18.882;2022-10-16T15:33:18;18.10;91.80
38380;DHT22;38377;47.418;18.882;2022-10-16T15:35:48;18.00;91.90
38380;DHT22;38377;47.418;18.882;2022-10-16T15:38:15;17.90;91.80
38380;DHT22;38377;47.418;18.882;2022-10-16T15:40:41;17.80;92.40
38380;DHT22;38377;47.418;18.882;2022-10-16T15:43:07;17.70;92.60
38380;DHT22;38377;47.418;18.882;2022-10-16T15:45:34;17.60;92.60
38380;DHT22;38377;47.418;18.882;2022-10-16T15:48:00;17.60;93.30
38380;DHT22;38377;47.418;18.882;2022-10-16T15:50:26;17.40;93.30
38380;DHT22;38377;47.418;18.882;2022-10-16T15:52:52;17.40;93.20
38380;DHT22;38377;47.418;18.882;2022-10-16T15:55:18;17.40;93.50
38380;DHT22;38377;47.418;18.882;2022-10-16T15:57:45;17.20;93.80
38380;DHT22;38377;47.418;18.882;2022-10-16T16:00:17;17.10;94.40
38380;DHT22;38377;47.418;18.882;2022-10-16T16:02:48;17.00;95.00
38380;DHT22;38377;47.418;18.882;2022-10-16T16:05:14;16.80;95.30
38380;DHT22;38377;47.418;18.882;2022-10-16T16:07:40;16.60;95.80
38380;DHT22;38377;47.418;18.882;2022-10-16T16:10:09;16.40;96.20
38380;DHT22;38377;47.418;18.882;2022-10-16T16:12:35;16.20;97.00
38380;DHT22;38377;47.418;18.882;2022-10-16T16:15:01;16.10;97.40
38380;DHT22;38377;47.418;18.882;2022-10-16T16:17:26;15.90;98.10
38380;DHT22;38377;47.418;18.882;2022-10-16T16:19:52;15.80;98.10
38380;DHT22;38377;47.418;18.882;2022-10-16T16:22:18;15.50;99.40
38380;DHT22;38377;47.418;18.882;2022-10-16T16:24:43;15.30;99.80
38380;DHT22;38377;47.418;18.882;2022-10-16T16:27:09;15.20;99.90
38380;DHT22;38377;47.418;18.882;2022-10-16T16:29:35;15.00;99.90
38380;DHT22;38377;47.418;18.882;2022-10-16T16:32:01;14.80;99.90
38380;DHT22;38377;47.418;18.882;2022-10-16T16:34:27;14.60;99.90
38380;DHT22;38377;47.418;18.882;2022-10-16T16:36:56;14.60;99.90
38380;DHT22;38377;47.418;18.882;2022-10-16T16:39:22;14.50;99.90
38380;DHT22;38377;47.418;18.882;2022-10-16T16:41:48;14.30;99.90
38380;DHT22;38377;47.418;18.882;2022-10-16T16:44:15;14.20;99.90
38380;DHT22;38377;47.418;18.882;2022-10-16T16:46:44;14.10;99.90
38380;DHT22;38377;47.418;18.882;2022-10-16T16:49:14;13.90;99.90
38380;DHT22;38377;47.418;18.882;2022-10-16T16:51:41;13.80;99.90
38380;DHT22;38377;47.418;18.882;2022-10-16T16:54:08;13.60;99.90
38380;DHT22;38377;47.418;18.882;2022-10-16T16:56:34;13.60;99.90
38380;DHT22;38377;47.418;18.882;2022-10-16T16:59:01;13.50;99.90
38380;DHT22;38377;47.418;18.882;2022-10-16T17:01:28;13.40;99.90
38380;DHT22;38377;47.418;18.882;2022-10-16T17:03:55;13.40;99.90
38380;DHT22;38377;47.418;18.882;2022-10-16T17:06:26;13.30;99.90
38380;DHT22;38377;47.418;18.882;2022-10-16T17:08:55;13.20;99.90
38380;DHT22;38377;47.418;18.882;2022-10-16T17:11:24;13.20;99.90
38380;DHT22;38377;47.418;18.882;2022-10-16T17:13:51;13.10;99.90
38380;DHT22;38377;47.418;18.882;2022-10-16T17:16:19;13.10;99.90
38380;DHT22;38377;47.418;18.882;2022-10-16T17:18:45;13.00;99.90
38380;DHT22;38377;47.418;18.882;2022-10-16T17:21:11;12.90;99.90
38380;DHT22;38377;47.418;18.882;2022-10-16T17:23:38;12.80;99.90
38380;DHT22;38377;47.418;18.882;2022-10-16T17:26:14;12.70;99.90
38380;DHT22;38377;47.418;18.882;2022-10-16T17:28:41;12.70;99.90
38380;DHT22;38377;47.418;18.882;2022-10-16T17:33:34;12.60;99.90
38380;DHT22;38377;47.418;18.882;2022-10-16T17:36:00;12.50;99.90
38380;DHT22;38377;47.418;18.882;2022-10-16T17:38:25;12.50;99.90
38380;DHT22;38377;47.418;18.882;2022-10-16T17:40:51;12.50;99.90
38380;DHT22;38377;47.418;18.882;2022-10-16T17:43:17;12.50;99.90